createdAt,value
2024-02-12T00:00:49.687Z,4.9
2024-02-12T00:02:49.708Z,3.9
2024-02-12T00:04:49.869Z,4.5
2024-02-12T00:06:49.802Z,3.8
2024-02-12T00:08:49.972Z,5.0
2024-02-12T00:10:49.923Z,4.7
2024-02-12T00:12:49.817Z,3.4
2024-02-12T00:14:49.572Z,3.4
2024-02-12T00:16:49.409Z,3.9
2024-02-12T00:18:50.246Z,3.9
2024-02-12T00:20:49.996Z,4.2
2024-02-12T00:22:49.651Z,4.2
2024-02-12T00:24:49.436Z,4.6
2024-02-12T00:26:50.263Z,3.9
2024-02-12T00:28:50.110Z,3.7
2024-02-12T00:30:49.935Z,3.8
2024-02-12T00:32:49.794Z,4.0
2024-02-12T00:34:49.739Z,4.0
2024-02-12T00:36:49.526Z,3.3
2024-02-12T00:38:49.543Z,3.3
2024-02-12T00:40:49.394Z,3.2
2024-02-12T00:42:50.183Z,3.2
2024-02-12T00:44:49.983Z,3.8
2024-02-12T00:46:49.591Z,3.9
2024-02-12T00:48:49.582Z,3.4
2024-02-12T00:50:49.437Z,3.1
2024-02-12T00:52:50.143Z,3.1
2024-02-12T00:54:49.887Z,4.2
2024-02-12T00:56:49.666Z,2.8
2024-02-12T00:58:49.619Z,3.3
2024-02-12T01:00:49.537Z,4.3
2024-02-12T01:02:50.212Z,4.3
2024-02-12T01:04:50.001Z,3.6
2024-02-12T01:06:49.781Z,5.0
2024-02-12T01:08:50.342Z,4.1
2024-02-12T01:10:49.423Z,4.1
2024-02-12T01:12:50.199Z,7.8
2024-02-12T01:14:50.025Z,3.2
2024-02-12T01:16:49.848Z,3.4
2024-02-12T01:18:49.750Z,5.0
2024-02-12T01:20:49.694Z,5.0
2024-02-12T01:22:49.839Z,3.4
2024-02-12T01:24:49.776Z,4.4
2024-02-12T01:26:49.725Z,2.9
2024-02-12T01:28:49.681Z,3.5
2024-02-12T01:30:49.572Z,3.5
2024-02-12T01:32:50.483Z,3.5
2024-02-12T01:34:49.546Z,4.2
2024-02-12T01:36:49.656Z,2.9
2024-02-12T01:38:49.369Z,3.2
2024-02-12T01:40:50.218Z,3.2
2024-02-12T01:42:50.071Z,3.7
2024-02-12T01:44:49.931Z,4.5
2024-02-12T01:46:50.523Z,3.6
2024-02-12T01:48:49.759Z,3.6
2024-02-12T01:50:49.701Z,3.2
2024-02-12T01:52:49.580Z,3.5
2024-02-12T01:54:50.293Z,3.4
2024-02-12T01:56:50.093Z,3.4
2024-02-12T01:58:50.008Z,4.3
2024-02-12T02:00:49.953Z,3.5
2024-02-12T02:02:49.744Z,3.3
2024-02-12T02:04:49.693Z,4.0
2024-02-12T02:06:49.382Z,3.6
2024-02-12T02:08:50.081Z,3.0
2024-02-12T02:10:50.204Z,3.0
2024-02-12T02:12:50.278Z,3.8
2024-02-12T02:14:50.117Z,3.4
2024-02-12T02:16:49.971Z,3.0
2024-02-12T02:18:50.049Z,3.0
2024-02-12T02:20:49.871Z,2.5
2024-02-12T02:22:49.708Z,2.6
2024-02-12T02:24:49.530Z,2.9
2024-02-12T02:26:50.341Z,2.8
2024-02-12T02:28:49.369Z,2.8
2024-02-12T02:30:50.175Z,2.9
2024-02-12T02:32:50.069Z,3.0
2024-02-12T02:34:49.974Z,2.3
2024-02-12T02:36:49.787Z,2.7
2024-02-12T02:38:49.785Z,2.7
2024-02-12T02:40:49.633Z,2.5
2024-02-12T02:42:49.508Z,3.0
2024-02-12T02:44:50.278Z,3.1
2024-02-12T02:46:50.096Z,3.1
2024-02-12T02:48:49.932Z,2.9
2024-02-12T02:50:49.682Z,1.8
2024-02-12T02:52:49.531Z,3.3
2024-02-12T02:54:49.371Z,3.3
2024-02-12T02:56:50.177Z,3.0
2024-02-12T02:58:49.949Z,3.0
2024-02-12T03:00:49.829Z,2.9
2024-02-12T03:02:49.614Z,1.9
2024-02-12T03:04:49.396Z,3.4
2024-02-12T03:06:50.232Z,3.4
2024-02-12T03:08:50.009Z,3.0
2024-02-12T03:10:49.859Z,3.2
2024-02-12T03:12:49.741Z,3.2
2024-02-12T03:14:49.475Z,2.2
2024-02-12T03:16:50.289Z,2.2
2024-02-12T03:18:50.302Z,2.1
2024-02-12T03:20:50.112Z,3.4
2024-02-12T03:22:49.942Z,3.0
2024-02-12T03:24:49.796Z,4.0
2024-02-12T03:26:49.607Z,4.0
2024-02-12T03:28:49.365Z,3.6
2024-02-12T03:30:50.226Z,4.0
2024-02-12T03:32:50.147Z,5.0
2024-02-12T03:34:50.011Z,2.1
2024-02-12T03:36:49.837Z,2.1
2024-02-12T03:38:49.692Z,1.8
2024-02-12T03:40:49.476Z,3.3
2024-02-12T03:42:50.329Z,4.6
2024-02-12T03:44:50.085Z,4.6
2024-02-12T03:46:49.958Z,2.2
2024-02-12T03:48:49.815Z,2.5
2024-02-12T03:50:49.792Z,2.4
2024-02-12T03:52:49.570Z,2.4
2024-02-12T03:54:49.377Z,2.5
2024-02-12T03:56:50.177Z,2.2
2024-02-12T03:58:50.014Z,3.4
2024-02-12T04:00:49.849Z,1.9
2024-02-12T04:02:49.628Z,3.3
2024-02-12T04:04:49.455Z,3.3
2024-02-12T04:06:50.262Z,2.5
2024-02-12T04:08:50.038Z,3.5
2024-02-12T04:10:49.682Z,2.1
2024-02-12T04:12:49.526Z,2.4
2024-02-12T04:14:50.316Z,2.4
2024-02-12T04:16:50.137Z,2.2
2024-02-12T04:18:49.987Z,2.2
2024-02-12T04:20:49.738Z,2.0
2024-02-12T04:22:49.575Z,2.3
2024-02-12T04:24:49.446Z,2.3
2024-02-12T04:26:50.210Z,3.6
2024-02-12T04:28:50.259Z,2.4
2024-02-12T04:30:50.289Z,3.1
2024-02-12T04:32:50.164Z,3.1
2024-02-12T04:34:50.082Z,2.6
2024-02-12T04:36:49.886Z,2.3
2024-02-12T04:38:49.806Z,2.2
2024-02-12T04:40:49.836Z,2.4
2024-02-12T04:42:49.736Z,2.4
2024-02-12T04:44:49.546Z,3.3
2024-02-12T04:46:49.343Z,3.5
2024-02-12T04:48:50.191Z,3.5
2024-02-12T04:50:49.985Z,3.9
2024-02-12T04:52:49.768Z,3.4
2024-02-12T04:54:49.602Z,5.0
2024-02-12T04:56:49.430Z,3.3
2024-02-12T04:58:50.226Z,2.7
2024-02-12T05:00:50.076Z,2.9
2024-02-12T05:02:49.858Z,2.9
2024-02-12T05:04:49.672Z,3.3
2024-02-12T05:06:49.500Z,2.8
2024-02-12T05:08:50.349Z,2.8
2024-02-12T05:10:50.100Z,2.7
2024-02-12T05:12:49.964Z,2.8
2024-02-12T05:14:49.649Z,2.2
2024-02-12T05:16:49.391Z,3.7
2024-02-12T05:18:50.228Z,2.5
2024-02-12T05:20:49.984Z,2.5
2024-02-12T05:22:49.773Z,3.1
2024-02-12T05:24:49.503Z,2.3
2024-02-12T05:26:50.222Z,2.7
2024-02-12T05:28:50.044Z,2.7
2024-02-12T05:30:49.678Z,4.2
2024-02-12T05:32:49.519Z,4.2
2024-02-12T05:34:51.316Z,6.1
2024-02-12T05:36:50.210Z,2.9
2024-02-12T05:38:49.902Z,3.3
2024-02-12T05:40:49.739Z,3.3
2024-02-12T05:42:49.618Z,4.6
2024-02-12T05:44:49.355Z,3.3
2024-02-12T05:46:50.181Z,3.3
2024-02-12T05:48:50.010Z,4.4
2024-02-12T05:50:49.832Z,4.4
2024-02-12T05:52:49.643Z,3.1
2024-02-12T05:54:49.449Z,3.7
2024-02-12T05:56:50.273Z,3.7
2024-02-12T05:58:50.059Z,2.7
2024-02-12T06:00:49.676Z,2.7
2024-02-12T06:02:49.499Z,2.8
2024-02-12T06:04:50.509Z,3.3
2024-02-12T06:06:50.467Z,3.9
2024-02-12T06:08:50.166Z,4.1
2024-02-12T06:10:49.950Z,4.1
2024-02-12T06:12:49.811Z,3.7
2024-02-12T06:14:49.608Z,3.3
2024-02-12T06:16:49.408Z,3.7
2024-02-12T06:18:50.233Z,3.7
2024-02-12T06:20:50.067Z,3.7
2024-02-12T06:22:49.816Z,2.8
2024-02-12T06:24:49.496Z,3.5
2024-02-12T06:26:50.383Z,2.8
2024-02-12T06:28:50.045Z,2.8
2024-02-12T06:30:49.722Z,2.8
2024-02-12T06:32:49.684Z,3.8
2024-02-12T06:34:50.701Z,2.9
2024-02-12T06:36:49.553Z,2.9
2024-02-12T06:38:49.356Z,4.9
2024-02-12T06:40:50.206Z,3.8
2024-02-12T06:42:50.000Z,3.7
2024-02-12T06:44:49.783Z,3.0
2024-02-12T06:46:50.731Z,3.0
2024-02-12T06:48:50.092Z,3.4
2024-02-12T06:50:49.848Z,5.3
2024-02-12T06:52:49.713Z,3.7
2024-02-12T06:54:49.515Z,3.4
2024-02-12T06:56:50.353Z,3.4
2024-02-12T06:58:50.114Z,3.7
2024-02-12T07:00:50.029Z,3.9
2024-02-12T07:02:49.868Z,3.9
2024-02-12T07:04:49.816Z,3.5
2024-02-12T07:06:49.567Z,4.8
2024-02-12T07:08:50.372Z,4.1
2024-02-12T07:10:50.123Z,3.4
2024-02-12T07:12:49.948Z,6.7
2024-02-12T07:14:49.771Z,6.7
2024-02-12T07:16:49.558Z,5.8
2024-02-12T07:18:50.235Z,6.0
2024-02-12T07:20:49.969Z,3.7
2024-02-12T07:22:49.796Z,4.7
2024-02-12T07:24:49.685Z,4.7
2024-02-12T07:26:49.495Z,4.3
2024-02-12T07:28:50.323Z,4.3
2024-02-12T07:30:50.086Z,4.4
2024-02-12T07:32:49.974Z,4.3
2024-02-12T07:34:49.893Z,4.3
2024-02-12T07:36:49.764Z,4.6
2024-02-12T07:38:49.542Z,3.9
2024-02-12T07:40:49.360Z,4.4
2024-02-12T07:42:50.162Z,4.4
2024-02-12T07:44:49.987Z,4.8
2024-02-12T07:46:49.816Z,5.3
2024-02-12T07:48:49.744Z,5.3
2024-02-12T07:50:49.675Z,5.1
2024-02-12T07:52:49.442Z,5.0
2024-02-12T07:54:50.283Z,4.6
2024-02-12T07:56:50.054Z,4.6
2024-02-12T07:58:49.878Z,5.2
2024-02-12T08:00:49.656Z,3.1
2024-02-12T08:02:49.623Z,3.1
2024-02-12T08:04:49.460Z,3.1
2024-02-12T08:06:50.350Z,3.9
2024-02-12T08:08:50.163Z,3.6
2024-02-12T08:10:49.848Z,3.6
2024-02-12T08:12:49.717Z,4.2
2024-02-12T08:14:49.508Z,4.2
2024-02-12T08:16:50.305Z,3.6
2024-02-12T08:18:50.218Z,4.2
2024-02-12T08:20:50.260Z,4.2
2024-02-12T08:22:50.116Z,3.5
2024-02-12T08:24:50.011Z,3.5
2024-02-12T08:26:49.764Z,3.6
2024-02-12T08:28:49.601Z,5.1
2024-02-12T08:30:49.479Z,3.2
2024-02-12T08:32:49.584Z,3.4
2024-02-12T08:34:49.696Z,3.4
2024-02-12T08:36:49.690Z,3.6
2024-02-12T08:38:49.687Z,3.7
2024-02-12T08:40:49.462Z,5.1
2024-02-12T08:42:50.317Z,4.5
2024-02-12T08:44:50.087Z,4.5
2024-02-12T08:46:50.035Z,3.2
2024-02-12T08:48:49.786Z,3.2
2024-02-12T08:50:49.880Z,4.8
2024-02-12T08:52:49.790Z,4.8
2024-02-12T08:54:49.632Z,5.1
2024-02-12T08:56:49.515Z,5.0
2024-02-12T08:58:50.229Z,7.7
2024-02-12T09:00:50.064Z,7.7
2024-02-12T09:02:49.927Z,5.2
2024-02-12T09:04:49.677Z,5.3
2024-02-12T09:06:49.561Z,4.5
2024-02-12T09:08:50.377Z,5.5
2024-02-12T09:10:50.108Z,5.1
2024-02-12T09:12:53.241Z,5.1
2024-02-12T09:14:49.931Z,5.3
2024-02-12T09:16:49.785Z,5.2
2024-02-12T09:18:49.648Z,5.7
2024-02-12T09:20:49.420Z,4.8
2024-02-12T09:22:50.225Z,4.8
2024-02-12T09:24:49.997Z,5.6
2024-02-12T09:26:49.860Z,4.7
2024-02-12T09:28:49.636Z,5.0
2024-02-12T09:30:49.509Z,4.6
2024-02-12T09:32:50.532Z,4.6
2024-02-12T09:34:49.519Z,4.9
2024-02-12T09:36:50.363Z,4.3
2024-02-12T09:38:50.166Z,4.3
2024-02-12T09:40:50.148Z,4.3
2024-02-12T09:42:49.988Z,4.8
2024-02-12T09:44:49.763Z,5.1
2024-02-12T09:46:49.583Z,5.1
2024-02-12T09:48:49.695Z,4.4
2024-02-12T09:50:49.777Z,4.4
2024-02-12T09:52:49.522Z,5.8
2024-02-12T09:54:50.247Z,4.7
2024-02-12T09:56:50.027Z,5.8
2024-02-12T09:58:49.630Z,6.9
2024-02-12T10:00:50.274Z,6.9
2024-02-12T10:02:50.046Z,6.5
2024-02-12T10:04:49.938Z,7.1
2024-02-12T10:06:49.615Z,7.1
2024-02-12T10:08:49.710Z,6.7
2024-02-12T10:10:50.341Z,5.7
2024-02-12T10:12:50.190Z,5.6
2024-02-12T10:14:49.955Z,5.4
2024-02-12T10:16:49.785Z,7.8
2024-02-12T10:18:49.639Z,7.8
2024-02-12T10:20:49.420Z,6.2
2024-02-12T10:22:50.112Z,6.8
2024-02-12T10:24:49.866Z,7.0
2024-02-12T10:26:49.677Z,7.9
2024-02-12T10:28:49.577Z,7.9
2024-02-12T10:30:49.507Z,6.2
2024-02-12T10:32:50.461Z,7.6
2024-02-12T10:34:49.625Z,8.1
2024-02-12T10:36:49.557Z,8.9
2024-02-12T10:38:49.605Z,8.9
2024-02-12T10:40:49.356Z,8.2
2024-02-12T10:42:50.178Z,9.3
2024-02-12T10:44:50.008Z,9.2
2024-02-12T10:46:49.847Z,9.4
2024-02-12T10:48:49.771Z,9.4
2024-02-12T10:50:49.758Z,9.1
2024-02-12T10:52:49.569Z,7.8
2024-02-12T10:54:49.500Z,7.9
2024-02-12T10:56:50.353Z,7.9
2024-02-12T10:58:50.056Z,8.1
2024-02-12T11:00:55.520Z,8.8
2024-02-12T11:02:49.710Z,7.4
2024-02-12T11:04:49.525Z,8.8
2024-02-12T11:06:49.554Z,10.0
2024-02-12T11:08:49.400Z,10.0
2024-02-12T11:10:50.215Z,8.0
2024-02-12T11:12:49.982Z,7.8
2024-02-12T11:14:49.838Z,10.2
2024-02-12T11:16:49.615Z,6.1
2024-02-12T11:18:49.833Z,6.1
2024-02-12T11:20:49.793Z,6.1
2024-02-12T11:22:49.669Z,8.1
2024-02-12T11:24:50.276Z,8.1
2024-02-12T11:26:50.360Z,5.5
2024-02-12T11:28:50.322Z,7.6
2024-02-12T11:30:50.120Z,5.6
2024-02-12T11:32:50.110Z,5.6
2024-02-12T11:34:50.145Z,7.4
2024-02-12T11:36:49.958Z,6.9
2024-02-12T11:38:49.964Z,5.7
2024-02-12T11:40:49.826Z,4.9
2024-02-12T11:42:49.660Z,4.5
2024-02-12T11:44:49.544Z,4.5
2024-02-12T11:46:49.482Z,4.8
2024-02-12T11:48:50.341Z,4.2
2024-02-12T11:50:50.264Z,5.4
2024-02-12T11:52:49.983Z,4.5
2024-02-12T11:54:49.682Z,4.5
2024-02-12T11:56:49.601Z,4.1
2024-02-12T11:58:50.371Z,3.3
2024-02-12T12:00:50.172Z,4.4
2024-02-12T12:02:49.928Z,4.4
2024-02-12T12:04:49.794Z,4.5
2024-02-12T12:06:49.717Z,7.5
2024-02-12T12:08:49.604Z,7.1
2024-02-12T12:10:49.414Z,7.8
2024-02-12T12:12:58.812Z,7.8
2024-02-12T12:14:49.789Z,6.5
2024-02-12T12:17:27.787Z,8.5
2024-02-12T12:18:50.250Z,10.4
2024-02-12T12:20:50.149Z,7.5
2024-02-12T12:22:49.887Z,7.5
2024-02-12T12:24:49.666Z,9.5
2024-02-12T12:26:49.584Z,9.5
2024-02-12T12:28:50.342Z,9.6
2024-02-12T12:30:50.178Z,8.7
2024-02-12T12:32:50.105Z,8.7
2024-02-12T12:34:49.981Z,9.2
2024-02-12T12:36:49.822Z,9.2
2024-02-12T12:38:49.674Z,8.1
2024-02-12T12:40:49.431Z,9.2
2024-02-12T12:42:50.267Z,8.5
2024-02-12T12:44:50.100Z,8.5
2024-02-12T12:46:49.893Z,10.8
2024-02-12T12:48:49.896Z,8.6
2024-02-12T12:50:58.964Z,6.8
2024-02-12T12:52:50.331Z,11.0
2024-02-12T12:54:50.110Z,11.0
2024-02-12T12:56:50.165Z,8.7
2024-02-12T12:58:49.929Z,8.1
2024-02-12T13:00:49.855Z,7.5
2024-02-12T13:02:49.595Z,7.5
2024-02-12T13:04:49.435Z,10.7
2024-02-12T13:06:50.254Z,8.0
2024-02-12T13:08:50.141Z,7.2
2024-02-12T13:10:50.564Z,6.5
2024-02-12T13:12:49.862Z,6.5
2024-02-12T13:14:49.870Z,7.1
2024-02-12T13:16:49.728Z,7.5
2024-02-12T13:18:49.596Z,7.5
2024-02-12T13:20:50.412Z,9.9
2024-02-12T13:22:50.256Z,9.9
2024-02-12T13:24:50.086Z,7.8
2024-02-12T13:26:49.920Z,8.5
2024-02-12T13:28:49.672Z,7.1
2024-02-12T13:30:49.496Z,7.1
2024-02-12T13:32:50.405Z,7.4
2024-02-12T13:34:50.316Z,8.6
2024-02-12T13:36:50.127Z,8.8
2024-02-12T13:38:49.828Z,7.4
2024-02-12T13:40:49.966Z,7.4
2024-02-12T13:42:49.581Z,6.9
2024-02-12T13:44:49.607Z,7.9
2024-02-12T13:46:49.430Z,8.0
2024-02-12T13:48:50.330Z,7.4
2024-02-12T13:50:50.436Z,7.4
2024-02-12T13:52:50.429Z,7.6
2024-02-12T13:54:50.281Z,6.4
2024-02-12T13:56:50.105Z,8.5
2024-02-12T13:58:49.864Z,8.5
2024-02-12T14:01:03.878Z,7.5
2024-02-12T14:02:49.592Z,6.7
2024-02-12T14:04:50.406Z,6.2
2024-02-12T14:06:50.216Z,8.5
2024-02-12T14:08:50.018Z,8.5
2024-02-12T14:10:49.785Z,6.7
2024-02-12T14:12:49.628Z,5.7
2024-02-12T14:14:49.488Z,9.0
2024-02-12T14:16:49.471Z,6.8
2024-02-12T14:18:50.353Z,6.8
2024-02-12T14:20:50.123Z,7.7
2024-02-12T14:22:49.845Z,8.2
2024-02-12T14:24:49.512Z,7.8
2024-02-12T14:26:59.397Z,7.8
2024-02-12T14:28:49.864Z,7.2
2024-02-12T14:30:49.740Z,7.2
2024-02-12T14:32:49.631Z,7.6
2024-02-12T14:34:49.935Z,8.2
2024-02-12T14:36:49.780Z,6.8
2024-02-12T14:38:49.934Z,10.5
2024-02-12T14:40:49.820Z,10.5
2024-02-12T14:42:49.648Z,7.8
2024-02-12T14:44:49.470Z,7.8
2024-02-12T14:46:50.236Z,10.8
2024-02-12T14:48:50.135Z,10.8
2024-02-12T14:50:50.104Z,6.5
2024-02-12T14:52:50.129Z,6.4
2024-02-12T14:54:49.899Z,7.2
2024-02-12T14:56:49.772Z,7.2
2024-02-12T14:58:49.516Z,6.9
2024-02-12T15:00:49.441Z,9.7
2024-02-12T15:02:49.475Z,7.7
2024-02-12T15:04:49.441Z,8.2
2024-02-12T15:06:50.218Z,8.1
2024-02-12T15:08:50.018Z,8.1
2024-02-12T15:10:49.845Z,5.2
2024-02-12T15:12:49.660Z,5.5
2024-02-12T15:14:49.441Z,5.1
2024-02-12T15:16:50.260Z,5.1
2024-02-12T15:18:50.187Z,3.3
2024-02-12T15:20:49.937Z,4.4
2024-02-12T15:22:49.738Z,3.5
2024-02-12T15:24:49.531Z,3.6
2024-02-12T15:26:49.377Z,3.6
2024-02-12T15:28:50.154Z,3.3
2024-02-12T15:30:50.278Z,3.4
2024-02-12T15:32:50.485Z,4.2
2024-02-12T15:34:49.412Z,4.2
2024-02-12T15:36:50.219Z,4.2
2024-02-12T15:38:50.074Z,5.1
2024-02-12T15:40:49.875Z,5.8
2024-02-12T15:42:50.919Z,4.7
2024-02-12T15:44:50.309Z,4.7
2024-02-12T15:46:50.084Z,7.1
2024-02-12T15:48:49.993Z,7.2
2024-02-12T15:50:49.705Z,8.0
2024-02-12T15:52:49.539Z,8.0
2024-02-12T15:54:50.157Z,9.2
2024-02-12T15:56:50.010Z,8.9
2024-02-12T15:58:49.973Z,8.9
2024-02-12T16:00:49.856Z,8.7
2024-02-12T16:02:49.988Z,11.0
2024-02-12T16:04:49.791Z,11.0
2024-02-12T16:06:49.768Z,8.3
2024-02-12T16:08:49.721Z,10.0
2024-02-12T16:10:49.441Z,10.0
2024-02-12T16:12:50.270Z,8.0
2024-02-12T16:14:50.346Z,7.5
2024-02-12T16:16:50.114Z,7.5
2024-02-12T16:18:50.030Z,7.5
2024-02-12T16:20:49.831Z,10.1
2024-02-12T16:22:49.740Z,9.1
2024-02-12T16:24:49.562Z,9.1
2024-02-12T16:26:49.481Z,11.9
2024-02-12T16:28:50.178Z,8.2
2024-02-12T16:30:50.004Z,8.8
2024-02-12T16:32:49.950Z,9.1
2024-02-12T16:34:50.028Z,9.1
2024-02-12T16:36:49.849Z,10.6
2024-02-12T16:38:49.772Z,10.5
2024-02-12T16:40:49.473Z,10.2
2024-02-12T16:42:50.293Z,10.2
2024-02-12T16:44:50.482Z,10.1
2024-02-12T16:46:49.498Z,10.5
2024-02-12T16:48:50.437Z,9.9
2024-02-12T16:50:50.185Z,10.8
2024-02-12T16:52:49.963Z,13.3
2024-02-12T16:54:49.778Z,13.3
2024-02-12T16:56:49.670Z,13.8
2024-02-12T16:58:49.482Z,13.8
2024-02-12T17:00:50.261Z,13.8
2024-02-12T17:02:50.239Z,10.9
2024-02-12T17:04:50.246Z,10.9
2024-02-12T17:06:50.273Z,11.2
2024-02-12T17:08:50.184Z,11.2
2024-02-12T17:10:50.052Z,11.5
2024-02-12T17:12:49.705Z,11.5
2024-02-12T17:14:49.648Z,8.9
2024-02-12T17:16:49.538Z,11.0
2024-02-12T17:18:50.397Z,11.2
2024-02-12T17:20:49.437Z,11.4
2024-02-12T17:22:50.143Z,11.4
2024-02-12T17:24:51.561Z,9.0
2024-02-12T17:26:49.507Z,8.5
2024-02-12T17:28:49.467Z,8.7
2024-02-12T17:30:50.234Z,8.7
2024-02-12T17:32:50.154Z,9.4
2024-02-12T17:34:50.087Z,10.1
2024-02-12T17:36:49.893Z,11.4
2024-02-12T17:38:49.867Z,11.4
2024-02-12T17:40:49.892Z,11.4
2024-02-12T17:42:49.882Z,9.0
2024-02-12T17:44:49.902Z,9.5
2024-02-12T17:46:49.770Z,9.6
2024-02-12T17:48:49.624Z,9.3
2024-02-12T17:50:49.491Z,9.3
2024-02-12T17:52:49.409Z,7.7
2024-02-12T17:54:50.015Z,11.3
2024-02-12T17:56:52.279Z,9.6
2024-02-12T17:58:49.830Z,9.6
2024-02-12T18:00:49.678Z,9.8
2024-02-12T18:02:49.484Z,9.0
2024-02-12T18:04:50.278Z,11.8
2024-02-12T18:06:50.092Z,10.6
2024-02-12T18:08:49.960Z,10.6
2024-02-12T18:10:49.712Z,9.4
2024-02-12T18:12:49.540Z,9.4
2024-02-12T18:14:49.496Z,7.4
2024-02-12T18:16:49.380Z,8.9
2024-02-12T18:18:50.281Z,8.9
2024-02-12T18:20:50.288Z,9.6
2024-02-12T18:22:50.011Z,8.1
2024-02-12T18:24:49.860Z,8.1
2024-02-12T18:26:49.731Z,8.1
2024-02-12T18:28:49.456Z,9.2
2024-02-12T18:30:50.289Z,8.5
2024-02-12T18:32:50.174Z,8.8
2024-02-12T18:34:50.095Z,10.1
2024-02-12T18:36:49.991Z,10.1
2024-02-12T18:38:49.800Z,9.1
2024-02-12T18:40:49.558Z,9.6
2024-02-12T18:42:49.386Z,8.8
2024-02-12T18:44:50.332Z,9.8
2024-02-12T18:46:50.222Z,9.8
2024-02-12T18:48:53.195Z,9.2
2024-02-12T18:50:49.597Z,8.6
2024-02-12T18:52:49.436Z,7.5
2024-02-12T18:54:50.232Z,7.4
2024-02-12T18:56:49.956Z,5.8
2024-02-12T18:58:49.651Z,5.8
2024-02-12T19:00:50.334Z,5.1
2024-02-12T19:02:50.151Z,4.0
2024-02-12T19:04:49.996Z,5.0
2024-02-12T19:06:49.796Z,5.0
2024-02-12T19:08:49.567Z,3.9
2024-02-12T19:10:49.338Z,6.5
2024-02-12T19:12:50.146Z,6.5
2024-02-12T19:14:49.896Z,4.9
2024-02-12T19:16:49.661Z,4.9
2024-02-12T19:18:49.463Z,4.9
2024-02-12T19:20:50.358Z,3.7
2024-02-12T19:22:50.251Z,4.2
2024-02-12T19:24:50.053Z,4.2
2024-02-12T19:26:49.888Z,3.2
2024-02-12T19:28:49.724Z,4.0
2024-02-12T19:30:49.509Z,4.3
2024-02-12T19:32:50.203Z,4.1
2024-02-12T19:34:50.114Z,4.1
2024-02-12T19:36:49.721Z,4.0
2024-02-12T19:38:49.591Z,4.0
2024-02-12T19:40:49.357Z,4.0
2024-02-12T19:42:50.191Z,4.1
2024-02-12T19:44:50.047Z,4.1
2024-02-12T19:46:49.805Z,4.3
2024-02-12T19:48:49.819Z,4.3
2024-02-12T19:50:49.777Z,3.6
2024-02-12T19:52:49.677Z,4.5
2024-02-12T19:54:49.496Z,4.5
2024-02-12T19:56:50.335Z,4.9
2024-02-12T19:58:50.096Z,4.6
2024-02-12T20:00:50.039Z,6.3
2024-02-12T20:02:49.783Z,5.2
2024-02-12T20:04:49.777Z,5.2
2024-02-12T20:06:49.588Z,4.4
2024-02-12T20:08:50.210Z,6.2
2024-02-12T20:10:50.019Z,5.9
2024-02-12T20:12:49.778Z,4.7
2024-02-12T20:14:49.695Z,4.7
2024-02-12T20:16:49.657Z,5.4
2024-02-12T20:18:49.556Z,4.9
2024-02-12T20:20:49.506Z,6.2
2024-02-12T20:22:50.280Z,4.7
2024-02-12T20:24:50.072Z,4.7
2024-02-12T20:26:50.039Z,5.2
2024-02-12T20:28:49.688Z,4.2
2024-02-12T20:30:49.558Z,6.4
2024-02-12T20:32:49.582Z,6.4
2024-02-12T20:34:49.926Z,4.9
2024-02-12T20:36:49.774Z,4.2
2024-02-12T20:38:49.656Z,4.2
2024-02-12T20:40:49.412Z,4.8
2024-02-12T20:42:50.071Z,4.8
2024-02-12T20:44:49.913Z,4.6
2024-02-12T20:46:49.868Z,4.1
2024-02-12T20:48:49.758Z,4.5
2024-02-12T20:50:49.654Z,4.5
2024-02-12T20:52:49.483Z,5.5
2024-02-12T20:54:50.328Z,4.9
2024-02-12T20:56:50.155Z,6.5
2024-02-12T20:58:49.955Z,4.7
2024-02-12T21:00:49.844Z,4.7
2024-02-12T21:02:49.608Z,7.6
2024-02-12T21:04:49.374Z,5.4
2024-02-12T21:06:50.242Z,6.3
2024-02-12T21:08:50.177Z,5.6
2024-02-12T21:10:50.043Z,5.6
2024-02-12T21:12:49.858Z,5.1
2024-02-12T21:14:49.701Z,5.1
2024-02-12T21:16:49.497Z,5.8
2024-02-12T21:18:50.370Z,5.8
2024-02-12T21:20:50.170Z,4.7
2024-02-12T21:22:50.094Z,5.1
2024-02-12T21:24:49.944Z,5.7
2024-02-12T21:26:49.803Z,5.8
2024-02-12T21:28:49.559Z,5.9
2024-02-12T21:30:49.413Z,6.4
2024-02-12T21:32:50.284Z,6.4
2024-02-12T21:34:50.231Z,5.1
2024-02-12T21:36:50.025Z,4.9
2024-02-12T21:38:49.857Z,6.3
2024-02-12T21:40:49.657Z,5.7
2024-02-12T21:42:49.495Z,5.7
2024-02-12T21:44:50.397Z,5.7
2024-02-12T21:46:50.289Z,4.5
2024-02-12T21:48:50.250Z,5.0
2024-02-12T21:50:50.098Z,5.0
2024-02-12T21:52:49.881Z,6.2
2024-02-12T21:54:49.756Z,5.8
2024-02-12T21:56:49.624Z,6.4
2024-02-12T21:58:49.344Z,4.8
2024-02-12T22:00:50.231Z,4.8
2024-02-12T22:02:50.111Z,6.5
2024-02-12T22:04:50.009Z,5.6
2024-02-12T22:06:49.844Z,5.8
2024-02-12T22:08:49.838Z,5.8
2024-02-12T22:10:49.652Z,7.3
2024-02-12T22:12:49.480Z,5.5
2024-02-12T22:14:50.386Z,5.1
2024-02-12T22:16:50.296Z,6.6
2024-02-12T22:18:50.184Z,6.6
2024-02-12T22:20:50.205Z,5.9
2024-02-12T22:22:49.939Z,5.9
2024-02-12T22:24:49.768Z,5.3
2024-02-12T22:26:49.638Z,6.6
2024-02-12T22:28:49.611Z,6.6
2024-02-12T22:30:49.418Z,6.8
2024-02-12T22:32:50.304Z,6.6
2024-02-12T22:34:50.322Z,6.8
2024-02-12T22:36:50.070Z,6.6
2024-02-12T22:38:49.935Z,7.8
2024-02-12T22:40:49.716Z,7.8
2024-02-12T22:42:49.544Z,6.0
2024-02-12T22:44:50.498Z,8.2
2024-02-12T22:46:50.322Z,8.2
2024-02-12T22:48:50.235Z,7.6
2024-02-12T22:50:50.409Z,7.6
2024-02-12T22:52:50.154Z,6.4
2024-02-12T22:54:49.989Z,6.4
2024-02-12T22:56:49.793Z,6.7
2024-02-12T22:58:49.630Z,5.7
2024-02-12T23:00:49.530Z,5.8
2024-02-12T23:02:49.509Z,7.1
2024-02-12T23:04:50.287Z,6.2
2024-02-12T23:06:50.165Z,8.1
2024-02-12T23:08:49.943Z,8.1
2024-02-12T23:10:49.706Z,7.1
2024-02-12T23:12:49.597Z,7.1
2024-02-12T23:14:50.437Z,6.5
2024-02-12T23:16:50.144Z,6.5
2024-02-12T23:18:50.354Z,6.4
2024-02-12T23:20:50.249Z,5.9
2024-02-12T23:22:49.968Z,7.4
2024-02-12T23:24:49.620Z,8.0
2024-02-12T23:26:49.523Z,8.0
2024-02-12T23:28:50.311Z,7.3
2024-02-12T23:30:50.013Z,6.6
2024-02-12T23:32:50.130Z,7.0
2024-02-12T23:34:50.071Z,8.8
2024-02-12T23:36:49.901Z,8.8
2024-02-12T23:38:49.851Z,6.4
2024-02-12T23:40:49.711Z,7.7
2024-02-12T23:42:49.522Z,6.2
2024-02-12T23:44:49.495Z,6.4
2024-02-12T23:46:49.369Z,6.4
2024-02-12T23:48:50.110Z,6.2
2024-02-12T23:50:50.083Z,6.3
2024-02-12T23:52:49.789Z,8.9
2024-02-12T23:54:49.412Z,8.9
2024-02-12T23:56:50.305Z,9.4
2024-02-12T23:58:50.015Z,8.5
